Time;durP1;ratioP1;P1;durP2;ratioP2;P2;SDS_P1;SDS_P2;PMS_P1;PMS_P2;Temp;Humidity;BMP_temperature;BMP_pressure;BME280_temperature;BME280_humidity;BME280_pressure;Samples;Min_cycle;Max_cycle;Signal;HPM_P1;HPM_P2
2021/04/07 00:00:49;;;;;;;5.97;2.43;;;;;;;;;;10650889;27;20262;-66
2021/04/07 00:05:51;;;;;;;5.47;2.37;;;;;;;;;;10645103;27;20210;-65
2021/04/07 00:10:54;;;;;;;4.13;2.10;;;;;;;;;;10633298;27;20208;-67
2021/04/07 00:15:56;;;;;;;4.93;2.10;;;;;;;;;;10613335;27;20626;-66
2021/04/07 00:20:57;;;;;;;8.80;2.40;;;;;;;;;;10634501;27;20226;-66
2021/04/07 00:26:00;;;;;;;6.97;2.30;;;;;;;;;;10642681;27;20206;-66
2021/04/07 00:31:05;;;;;;;4.73;2.30;;;;;;;;;;10630831;27;20193;-66
2021/04/07 00:36:06;;;;;;;3.57;1.43;;;;;;;;;;10643864;27;20344;-66
2021/04/07 00:41:09;;;;;;;2.77;1.50;;;;;;;;;;10610764;27;20285;-66
2021/04/07 00:46:10;;;;;;;4.83;2.03;;;;;;;;;;10634655;27;20251;-66
2021/04/07 00:51:13;;;;;;;3.93;1.93;;;;;;;;;;10646065;27;20198;-66
2021/04/07 00:56:15;;;;;;;7.23;2.77;;;;;;;;;;10635532;27;20217;-66
2021/04/07 01:01:17;;;;;;;5.43;2.60;;;;;;;;;;10645258;27;20265;-66
2021/04/07 01:06:18;;;;;;;5.40;2.30;;;;;;;;;;10627721;27;20262;-65
2021/04/07 01:11:21;;;;;;;6.33;3.27;;;;;;;;;;10629249;27;20313;-65
2021/04/07 01:16:23;;;;;;;7.13;3.30;;;;;;;;;;10628136;27;20682;-66
2021/04/07 01:21:24;;;;;;;7.43;3.50;;;;;;;;;;10630451;27;20652;-68
2021/04/07 01:26:27;;;;;;;1.20;1.10;;;;;;;;;;10640468;27;20295;-65
2021/04/07 01:31:28;;;;;;;4.97;2.17;;;;;;;;;;10644494;27;20641;-64
2021/04/07 01:36:30;;;;;;;5.60;2.43;;;;;;;;;;10642542;27;20229;-66
2021/04/07 01:41:33;;;;;;;7.40;3.10;;;;;;;;;;10647884;27;20732;-65
2021/04/07 01:46:34;;;;;;;6.93;2.97;;;;;;;;;;10642030;27;20216;-65
2021/04/07 01:51:36;;;;;;;6.23;2.87;;;;;;;;;;10619694;27;20213;-66
2021/04/07 01:56:49;;;;;;;6.83;3.47;;;;;;;;;;10647617;27;20249;-66
2021/04/07 02:01:51;;;;;;;6.10;2.50;;;;;;;;;;10643981;27;20200;-66
2021/04/07 02:06:53;;;;;;;5.90;2.63;;;;;;;;;;10635833;27;20664;-67
2021/04/07 02:11:55;;;;;;;7.37;3.30;;;;;;;;;;10641055;27;20226;-67
2021/04/07 02:16:58;;;;;;;4.83;1.97;;;;;;;;;;10638963;27;20253;-65
2021/04/07 02:22:04;;;;;;;7.27;3.67;;;;;;;;;;10626170;27;20262;-68
2021/04/07 02:27:11;;;;;;;7.23;3.77;;;;;;;;;;10644338;27;20243;-66
2021/04/07 02:32:13;;;;;;;5.33;1.90;;;;;;;;;;10647047;27;20215;-66
2021/04/07 02:37:15;;;;;;;6.47;3.20;;;;;;;;;;10627560;27;20550;-66
2021/04/07 02:42:19;;;;;;;5.47;2.43;;;;;;;;;;10636411;27;20209;-64
2021/04/07 02:47:21;;;;;;;6.90;3.57;;;;;;;;;;10641567;27;20269;-66
2021/04/07 02:52:23;;;;;;;4.93;2.67;;;;;;;;;;10646123;27;20200;-65
2021/04/07 02:57:25;;;;;;;5.30;2.03;;;;;;;;;;10638202;27;20245;-65
2021/04/07 03:02:27;;;;;;;6.73;3.10;;;;;;;;;;10640787;27;20626;-67
2021/04/07 03:07:29;;;;;;;5.70;2.60;;;;;;;;;;10642046;27;20209;-65
2021/04/07 03:12:31;;;;;;;7.70;3.60;;;;;;;;;;10644674;27;20634;-66
2021/04/07 03:17:33;;;;;;;4.73;2.30;;;;;;;;;;10627168;27;20237;-65
2021/04/07 03:22:35;;;;;;;7.00;3.30;;;;;;;;;;10631643;27;20698;-65
2021/04/07 03:27:37;;;;;;;5.83;2.97;;;;;;;;;;10634066;27;20624;-67
2021/04/07 03:32:39;;;;;;;5.30;2.67;;;;;;;;;;10630745;27;20515;-66
2021/04/07 03:37:40;;;;;;;6.43;2.60;;;;;;;;;;10642264;27;20244;-66
2021/04/07 03:42:43;;;;;;;6.27;2.80;;;;;;;;;;10620429;27;20198;-66
2021/04/07 03:47:46;;;;;;;6.63;3.30;;;;;;;;;;10638139;27;20226;-65
2021/04/07 03:52:48;;;;;;;6.27;2.70;;;;;;;;;;10642653;27;20269;-66
2021/04/07 03:57:54;;;;;;;7.23;3.80;;;;;;;;;;10637498;27;20238;-66
2021/04/07 04:02:55;;;;;;;3.70;2.10;;;;;;;;;;10626119;27;20210;-66
2021/04/07 04:07:58;;;;;;;2.07;1.33;;;;;;;;;;10641189;27;20759;-66
2021/04/07 04:13:00;;;;;;;4.43;1.97;;;;;;;;;;10644895;27;20190;-67
2021/04/07 04:18:06;;;;;;;5.13;2.70;;;;;;;;;;10635608;27;20229;-66
2021/04/07 04:23:07;;;;;;;7.63;3.07;;;;;;;;;;10628802;27;20198;-66
2021/04/07 04:28:10;;;;;;;8.70;3.40;;;;;;;;;;10637340;27;20214;-65
2021/04/07 04:33:12;;;;;;;7.57;2.97;;;;;;;;;;10628531;27;20275;-66
2021/04/07 04:38:13;;;;;;;5.50;2.80;;;;;;;;;;10638650;27;20237;-66
2021/04/07 04:43:16;;;;;;;8.20;2.90;;;;;;;;;;10639720;27;20575;-65
2021/04/07 04:48:17;;;;;;;7.50;2.67;;;;;;;;;;10617964;27;20778;-67
2021/04/07 04:53:19;;;;;;;8.27;3.10;;;;;;;;;;10644179;27;20190;-68
2021/04/07 04:58:22;;;;;;;5.57;3.17;;;;;;;;;;10630215;27;20297;-66
2021/04/07 05:03:23;;;;;;;7.50;4.00;;;;;;;;;;10623208;27;20201;-67
2021/04/07 05:08:25;;;;;;;7.47;3.27;;;;;;;;;;10635484;27;20623;-69
2021/04/07 05:13:27;;;;;;;6.97;3.10;;;;;;;;;;10637086;27;20281;-64
2021/04/07 05:18:29;;;;;;;9.23;4.00;;;;;;;;;;10640907;27;20629;-65
2021/04/07 05:23:31;;;;;;;6.67;3.20;;;;;;;;;;10637451;27;20293;-65
2021/04/07 05:28:34;;;;;;;7.07;3.30;;;;;;;;;;10628525;27;20603;-67
2021/04/07 05:33:38;;;;;;;6.80;2.77;;;;;;;;;;10635810;27;20243;-66
2021/04/07 05:38:40;;;;;;;7.17;3.90;;;;;;;;;;10639021;27;20301;-65
2021/04/07 05:43:43;;;;;;;4.70;2.37;;;;;;;;;;10636165;27;20197;-65
2021/04/07 05:48:45;;;;;;;2.87;1.47;;;;;;;;;;10626372;27;20214;-65
2021/04/07 05:53:47;;;;;;;3.30;1.63;;;;;;;;;;10636729;27;20266;-67
2021/04/07 05:59:00;;;;;;;5.60;2.73;;;;;;;;;;10616064;27;20542;-66
2021/04/07 06:04:03;;;;;;;5.17;2.53;;;;;;;;;;10630372;27;20190;-66
2021/04/07 06:09:05;;;;;;;6.20;3.30;;;;;;;;;;10639437;27;20201;-66
2021/04/07 06:14:08;;;;;;;7.27;3.87;;;;;;;;;;10640177;27;20886;-65
2021/04/07 06:19:09;;;;;;;5.57;2.63;;;;;;;;;;10641189;27;20281;-67
2021/04/07 06:24:11;;;;;;;6.73;3.27;;;;;;;;;;10634839;27;20575;-65
2021/04/07 06:29:13;;;;;;;6.40;3.53;;;;;;;;;;10646000;27;20249;-66
2021/04/07 06:34:15;;;;;;;6.60;3.53;;;;;;;;;;10649355;27;20296;-65
2021/04/07 06:39:17;;;;;;;5.77;3.30;;;;;;;;;;10644984;27;20186;-66
2021/04/07 06:44:20;;;;;;;7.13;3.13;;;;;;;;;;10648589;27;20217;-64
2021/04/07 06:49:23;;;;;;;2.87;1.40;;;;;;;;;;10641922;27;20204;-67
2021/04/07 06:54:27;;;;;;;6.93;2.53;;;;;;;;;;10627512;27;20245;-66
2021/04/07 06:59:30;;;;;;;6.23;3.20;;;;;;;;;;10645303;27;20678;-67
2021/04/07 07:04:32;;;;;;;5.37;2.67;;;;;;;;;;10644492;27;20217;-67
2021/04/07 07:09:34;;;;;;;6.27;3.40;;;;;;;;;;10654370;27;20217;-66
2021/04/07 07:14:37;;;;;;;7.43;2.57;;;;;;;;;;10648611;27;20932;-67
2021/04/07 07:19:39;;;;;;;3.97;2.00;;;;;;;;;;10634771;27;20261;-68
2021/04/07 07:24:41;;;;;;;3.30;1.90;;;;;;;;;;10628374;27;20733;-68
2021/04/07 07:29:52;;;;;;;5.67;2.80;;;;;;;;;;10645474;27;20245;-67
2021/04/07 07:35:04;;;;;;;5.53;2.60;;;;;;;;;;10641497;27;20339;-68
2021/04/07 07:40:06;;;;;;;3.20;1.60;;;;;;;;;;10632448;27;20650;-67
2021/04/07 07:45:10;;;;;;;5.57;2.73;;;;;;;;;;10639224;27;20606;-67
2021/04/07 07:50:12;;;;;;;4.37;2.10;;;;;;;;;;10642906;27;20225;-67
2021/04/07 07:55:15;;;;;;;3.73;2.10;;;;;;;;;;10646297;27;20214;-66
2021/04/07 08:00:18;;;;;;;3.43;1.93;;;;;;;;;;10634079;27;20198;-68
2021/04/07 08:05:20;;;;;;;4.63;2.70;;;;;;;;;;10640491;27;20209;-69
2021/04/07 08:10:22;;;;;;;2.33;1.53;;;;;;;;;;10643829;27;20205;-67
2021/04/07 08:15:25;;;;;;;6.00;2.43;;;;;;;;;;10637052;27;20209;-66
2021/04/07 08:20:28;;;;;;;5.50;2.80;;;;;;;;;;10643955;27;20277;-67
2021/04/07 08:25:32;;;;;;;5.30;2.80;;;;;;;;;;10631768;27;20209;-66
2021/04/07 08:30:40;;;;;;;3.60;1.90;;;;;;;;;;10639338;27;20199;-67
2021/04/07 08:35:42;;;;;;;4.80;2.37;;;;;;;;;;10648096;27;20316;-66
2021/04/07 08:40:45;;;;;;;5.40;2.73;;;;;;;;;;10640014;27;20186;-68
2021/04/07 08:45:49;;;;;;;3.37;1.67;;;;;;;;;;10615921;27;20264;-66
2021/04/07 08:51:03;;;;;;;4.70;2.47;;;;;;;;;;10608946;27;20234;-67
2021/04/07 08:56:06;;;;;;;4.37;2.50;;;;;;;;;;10628748;27;20257;-67
2021/04/07 09:01:18;;;;;;;5.37;3.13;;;;;;;;;;10617368;27;20630;-68
2021/04/07 09:06:25;;;;;;;4.13;2.53;;;;;;;;;;10631092;27;20221;-66
2021/04/07 09:11:27;;;;;;;2.97;1.98;;;;;;;;;;10618833;27;20197;-66
2021/04/07 09:16:30;;;;;;;3.55;2.10;;;;;;;;;;10638172;27;20228;-66
2021/04/07 09:21:32;;;;;;;4.63;2.40;;;;;;;;;;10630116;27;20292;-65
2021/04/07 09:26:41;;;;;;;4.23;2.03;;;;;;;;;;10618092;27;20209;-66
2021/04/07 09:31:45;;;;;;;5.07;2.60;;;;;;;;;;10608709;27;20280;-68
2021/04/07 09:36:48;;;;;;;4.53;2.80;;;;;;;;;;10617436;27;20656;-69
2021/04/07 09:41:51;;;;;;;5.83;2.83;;;;;;;;;;10619109;27;20197;-69
2021/04/07 09:46:55;;;;;;;4.30;2.20;;;;;;;;;;10616058;27;20610;-69
2021/04/07 09:51:58;;;;;;;4.67;2.50;;;;;;;;;;10625654;27;20281;-68
2021/04/07 09:57:00;;;;;;;3.83;2.03;;;;;;;;;;10631811;27;20221;-68
2021/04/07 10:02:06;;;;;;;5.33;2.40;;;;;;;;;;10642075;27;20194;-68
2021/04/07 10:07:09;;;;;;;4.97;1.83;;;;;;;;;;10647587;27;20660;-66
2021/04/07 10:12:12;;;;;;;2.53;1.40;;;;;;;;;;10635080;27;20193;-65
2021/04/07 10:17:15;;;;;;;2.37;1.40;;;;;;;;;;10624472;27;20567;-66
2021/04/07 10:22:20;;;;;;;2.33;1.37;;;;;;;;;;10637720;27;20201;-67
2021/04/07 10:27:22;;;;;;;3.43;1.83;;;;;;;;;;10629949;27;20213;-66
2021/04/07 10:32:25;;;;;;;3.20;1.80;;;;;;;;;;10641133;27;20189;-67
2021/04/07 10:37:27;;;;;;;4.00;1.70;;;;;;;;;;10640215;27;20198;-66
2021/04/07 10:42:29;;;;;;;5.40;2.60;;;;;;;;;;10642769;27;20193;-66
2021/04/07 10:47:35;;;;;;;4.60;2.20;;;;;;;;;;10651502;27;20924;-67
2021/04/07 10:52:38;;;;;;;4.43;2.00;;;;;;;;;;10620226;27;20213;-66
2021/04/07 10:57:41;;;;;;;3.30;1.73;;;;;;;;;;10640308;27;20275;-66
2021/04/07 11:02:45;;;;;;;7.10;2.20;;;;;;;;;;10636205;27;20198;-66
2021/04/07 11:07:47;;;;;;;3.23;1.50;;;;;;;;;;10648331;27;20217;-67
2021/04/07 11:12:49;;;;;;;4.23;1.80;;;;;;;;;;10620714;27;20202;-68
2021/04/07 11:17:53;;;;;;;2.97;1.53;;;;;;;;;;10619692;27;20233;-69
2021/04/07 11:22:55;;;;;;;3.37;1.50;;;;;;;;;;10636998;27;20737;-67
2021/04/07 11:27:57;;;;;;;4.10;1.80;;;;;;;;;;10639152;27;20228;-67
2021/04/07 11:33:02;;;;;;;2.33;1.30;;;;;;;;;;10635742;27;20258;-68
2021/04/07 11:38:26;;;;;;;3.13;1.43;;;;;;;;;;10639122;27;20210;-68
2021/04/07 11:43:46;;;;;;;3.97;1.50;;;;;;;;;;10635425;27;20216;-68
2021/04/07 11:48:48;;;;;;;3.90;1.50;;;;;;;;;;10641892;27;20202;-69
2021/04/07 11:53:50;;;;;;;3.50;1.60;;;;;;;;;;10615695;27;20194;-69
2021/04/07 11:58:53;;;;;;;1.93;0.90;;;;;;;;;;10621119;27;20297;-70
2021/04/07 12:03:56;;;;;;;2.60;1.50;;;;;;;;;;10636925;27;20190;-68
2021/04/07 12:08:58;;;;;;;3.17;1.40;;;;;;;;;;10646637;27;20714;-69
2021/04/07 12:14:00;;;;;;;3.37;1.37;;;;;;;;;;10627183;27;20273;-69
2021/04/07 12:19:06;;;;;;;1.60;0.90;;;;;;;;;;10633461;27;20206;-69
2021/04/07 12:24:08;;;;;;;1.73;1.00;;;;;;;;;;10626634;27;20266;-69
2021/04/07 12:29:10;;;;;;;3.03;1.20;;;;;;;;;;10650210;27;20286;-69
2021/04/07 12:34:12;;;;;;;2.50;1.10;;;;;;;;;;10665745;27;20210;-71
2021/04/07 12:39:14;;;;;;;2.87;1.20;;;;;;;;;;10656268;27;20206;-68
2021/04/07 12:44:16;;;;;;;4.47;1.73;;;;;;;;;;10652681;27;20313;-69
2021/04/07 12:49:19;;;;;;;2.83;1.40;;;;;;;;;;10621038;27;20189;-69
2021/04/07 12:54:20;;;;;;;2.80;1.50;;;;;;;;;;10619263;27;20754;-69
2021/04/07 12:59:22;;;;;;;2.27;1.27;;;;;;;;;;10611196;27;20229;-70
2021/04/07 13:04:25;;;;;;;4.97;2.03;;;;;;;;;;10627875;27;20213;-70
2021/04/07 13:09:26;;;;;;;4.90;1.70;;;;;;;;;;10639439;27;20281;-69
2021/04/07 13:14:29;;;;;;;2.80;1.10;;;;;;;;;;10630121;27;20266;-69
2021/04/07 13:19:32;;;;;;;2.07;0.97;;;;;;;;;;10636239;27;20258;-71
2021/04/07 13:24:37;;;;;;;2.60;1.30;;;;;;;;;;10651256;27;20677;-69
2021/04/07 13:29:39;;;;;;;3.43;1.50;;;;;;;;;;10642054;27;20213;-69
2021/04/07 13:34:44;;;;;;;1.50;1.07;;;;;;;;;;10617692;27;20209;-70
2021/04/07 13:39:58;;;;;;;2.80;1.40;;;;;;;;;;10636765;27;20258;-70
2021/04/07 13:45:00;;;;;;;3.90;1.53;;;;;;;;;;10640084;27;20206;-70
2021/04/07 13:50:06;;;;;;;1.83;1.03;;;;;;;;;;10631559;27;20679;-68
2021/04/07 13:55:08;;;;;;;2.33;1.03;;;;;;;;;;10624419;27;20301;-68
2021/04/07 14:00:11;;;;;;;1.93;1.13;;;;;;;;;;10628690;27;20198;-69
2021/04/07 14:05:14;;;;;;;2.93;1.10;;;;;;;;;;10626536;27;20209;-68
2021/04/07 14:10:18;;;;;;;0.80;0.80;;;;;;;;;;10652251;27;20202;-68
2021/04/07 14:15:19;;;;;;;2.67;1.20;;;;;;;;;;10658385;27;20553;-69
2021/04/07 14:20:22;;;;;;;6.17;1.40;;;;;;;;;;10650015;27;20573;-68
2021/04/07 14:50:16;;;;;;;1.57;0.93;;;;;;;;;;10659099;27;20208;-67
2021/04/07 14:55:19;;;;;;;2.87;1.20;;;;;;;;;;10618486;27;20342;-69
2021/04/07 15:00:20;;;;;;;2.10;1.00;;;;;;;;;;10615715;27;20285;-69
2021/04/07 15:05:23;;;;;;;3.77;1.57;;;;;;;;;;10631782;27;20206;-69
2021/04/07 15:10:25;;;;;;;1.90;1.10;;;;;;;;;;10629825;27;20197;-70
2021/04/07 15:15:27;;;;;;;6.30;1.80;;;;;;;;;;10635166;27;20653;-69
2021/04/07 15:20:29;;;;;;;5.37;1.70;;;;;;;;;;10620108;27;20679;-69
2021/04/07 15:25:33;;;;;;;4.10;1.73;;;;;;;;;;10642465;27;20212;-69
2021/04/07 15:30:47;;;;;;;2.43;1.23;;;;;;;;;;10639622;27;20186;-69
2021/04/07 15:35:48;;;;;;;1.10;0.67;;;;;;;;;;10638601;27;20234;-70
2021/04/07 15:41:07;;;;;;;3.27;1.73;;;;;;;;;;10618545;27;20190;-70
2021/04/07 15:46:09;;;;;;;3.03;1.10;;;;;;;;;;10639899;27;20314;-70
2021/04/07 15:51:13;;;;;;;1.20;1.10;;;;;;;;;;10642031;27;20226;-70
2021/04/07 15:56:16;;;;;;;5.17;2.30;;;;;;;;;;10637212;27;20213;-70
2021/04/07 16:01:18;;;;;;;5.03;2.20;;;;;;;;;;10649800;27;20194;-69
2021/04/07 16:06:20;;;;;;;6.27;2.17;;;;;;;;;;10635438;27;20600;-69
2021/04/07 16:11:22;;;;;;;3.77;1.40;;;;;;;;;;10607620;27;20249;-69
2021/04/07 16:16:25;;;;;;;3.00;1.53;;;;;;;;;;10625335;27;20244;-69
2021/04/07 16:21:27;;;;;;;4.83;2.30;;;;;;;;;;10646933;27;20275;-70
2021/04/07 16:26:29;;;;;;;2.90;1.30;;;;;;;;;;10616085;27;20213;-68
2021/04/07 16:31:34;;;;;;;3.47;2.00;;;;;;;;;;10645256;27;20284;-69
2021/04/07 16:36:37;;;;;;;5.47;1.50;;;;;;;;;;10615991;27;20217;-69
2021/04/07 16:41:40;;;;;;;2.20;0.90;;;;;;;;;;10641483;27;20599;-69
2021/04/07 16:46:41;;;;;;;3.70;1.17;;;;;;;;;;10619467;27;20205;-66
2021/04/07 16:51:43;;;;;;;4.90;1.67;;;;;;;;;;10649134;27;20201;-67
2021/04/07 16:56:45;;;;;;;4.03;1.47;;;;;;;;;;10637718;27;20606;-67
2021/04/07 17:03:57;;;;;;;4.00;1.90;;;;;;;;;;10592650;27;20516;-66
2021/04/07 17:08:58;;;;;;;2.83;1.27;;;;;;;;;;10553199;28;20195;-66
2021/04/07 17:14:00;;;;;;;3.50;1.57;;;;;;;;;;10548800;28;20237;-67
2021/04/07 17:19:02;;;;;;;4.77;2.10;;;;;;;;;;10544559;28;20204;-66
2021/04/07 17:24:04;;;;;;;2.83;1.40;;;;;;;;;;10544694;28;20554;-66
2021/04/07 17:29:08;;;;;;;3.23;1.53;;;;;;;;;;10555576;28;20210;-67
2021/04/07 17:34:10;;;;;;;2.27;1.20;;;;;;;;;;10554424;28;20194;-65
2021/04/07 17:39:12;;;;;;;3.50;1.43;;;;;;;;;;10554418;28;20727;-66
2021/04/07 17:44:14;;;;;;;5.33;2.13;;;;;;;;;;10579803;27;20218;-67
2021/04/07 17:49:16;;;;;;;2.40;1.47;;;;;;;;;;10557033;28;20195;-67
2021/04/07 17:54:18;;;;;;;4.80;2.07;;;;;;;;;;10568516;28;20289;-66
2021/04/07 17:59:19;;;;;;;3.17;1.70;;;;;;;;;;10549046;27;20343;-67
2021/04/07 18:04:22;;;;;;;2.27;1.33;;;;;;;;;;10545775;27;20279;-65
2021/04/07 18:09:24;;;;;;;3.57;1.27;;;;;;;;;;10549855;27;20188;-65
2021/04/07 18:14:26;;;;;;;3.60;1.40;;;;;;;;;;10510360;28;20207;-64
2021/04/07 18:19:29;;;;;;;2.37;1.20;;;;;;;;;;10511937;28;20238;-65
2021/04/07 18:24:30;;;;;;;3.97;1.90;;;;;;;;;;10517573;28;20208;-66
2021/04/07 18:29:33;;;;;;;5.27;1.97;;;;;;;;;;10511591;28;20184;-66
2021/04/07 18:34:35;;;;;;;4.30;2.37;;;;;;;;;;10517045;28;20608;-65
2021/04/07 18:39:37;;;;;;;6.90;3.00;;;;;;;;;;10515455;28;20338;-65
2021/04/07 18:44:39;;;;;;;7.30;2.80;;;;;;;;;;10506133;28;20211;-67
2021/04/07 18:49:42;;;;;;;7.40;3.47;;;;;;;;;;10506062;28;20219;-66
2021/04/07 18:54:43;;;;;;;6.67;3.27;;;;;;;;;;10521309;28;20198;-66
2021/04/07 18:59:45;;;;;;;6.57;3.20;;;;;;;;;;10514868;28;20861;-66
2021/04/07 19:04:48;;;;;;;5.90;2.83;;;;;;;;;;10518470;28;20212;-66
2021/04/07 19:09:49;;;;;;;5.87;2.77;;;;;;;;;;10518578;28;20775;-66
2021/04/07 19:14:52;;;;;;;5.17;2.57;;;;;;;;;;10522215;28;20712;-67
2021/04/07 19:19:54;;;;;;;8.00;2.67;;;;;;;;;;10516224;28;20731;-66
2021/04/07 19:24:56;;;;;;;3.97;1.90;;;;;;;;;;10541410;28;20206;-66
2021/04/07 19:29:58;;;;;;;4.30;2.33;;;;;;;;;;10514736;28;20631;-67
2021/04/07 19:35:01;;;;;;;7.57;3.30;;;;;;;;;;10509870;28;20208;-65
2021/04/07 19:40:03;;;;;;;3.67;2.03;;;;;;;;;;10525558;28;20283;-66
2021/04/07 19:45:05;;;;;;;5.67;2.40;;;;;;;;;;10534228;28;20218;-66
2021/04/07 19:50:10;;;;;;;3.17;1.57;;;;;;;;;;10525791;28;20542;-66
2021/04/07 19:55:12;;;;;;;4.13;1.67;;;;;;;;;;10539493;28;20627;-66
2021/04/07 20:00:14;;;;;;;3.90;1.73;;;;;;;;;;10532113;28;20310;-66
2021/04/07 20:05:17;;;;;;;7.93;2.77;;;;;;;;;;10528934;28;20223;-66
2021/04/07 20:10:19;;;;;;;5.97;3.03;;;;;;;;;;10533225;28;20771;-67
2021/04/07 20:15:21;;;;;;;3.90;1.87;;;;;;;;;;10538160;28;20517;-67
2021/04/07 20:20:25;;;;;;;6.30;3.13;;;;;;;;;;10525139;28;20593;-66
2021/04/07 20:25:28;;;;;;;5.97;2.97;;;;;;;;;;10527580;28;20211;-65
2021/04/07 20:30:30;;;;;;;6.50;3.13;;;;;;;;;;10525903;28;20618;-66
2021/04/07 20:35:34;;;;;;;7.07;3.03;;;;;;;;;;10522777;28;20708;-65
2021/04/07 20:40:35;;;;;;;3.83;1.90;;;;;;;;;;10531742;28;20195;-66
2021/04/07 20:45:37;;;;;;;9.83;4.23;;;;;;;;;;10533564;28;20207;-67
2021/04/07 20:50:39;;;;;;;6.93;3.23;;;;;;;;;;10530159;28;20257;-66
2021/04/07 20:55:41;;;;;;;5.00;2.47;;;;;;;;;;10523878;28;20210;-69
2021/04/07 21:00:45;;;;;;;4.27;1.80;;;;;;;;;;10517615;28;20215;-67
2021/04/07 21:05:48;;;;;;;5.17;2.40;;;;;;;;;;10517020;28;20215;-67
2021/04/07 21:10:49;;;;;;;8.70;4.75;;;;;;;;;;10520882;28;20490;-66
2021/04/07 21:15:51;;;;;;;8.07;3.43;;;;;;;;;;10524878;28;20693;-66
2021/04/07 21:20:53;;;;;;;8.40;3.10;;;;;;;;;;10537536;28;20711;-66
2021/04/07 21:25:55;;;;;;;3.30;1.73;;;;;;;;;;10524447;28;20211;-67
2021/04/07 21:30:58;;;;;;;7.90;3.10;;;;;;;;;;10511078;28;20378;-66
2021/04/07 21:36:00;;;;;;;5.97;2.07;;;;;;;;;;10514400;28;20227;-65
2021/04/07 21:41:02;;;;;;;8.47;2.33;;;;;;;;;;10528557;28;20311;-65
2021/04/07 21:46:04;;;;;;;5.83;2.90;;;;;;;;;;10504192;28;20219;-66
2021/04/07 21:51:06;;;;;;;8.83;3.00;;;;;;;;;;10515421;28;20277;-67
2021/04/07 21:56:08;;;;;;;4.13;2.23;;;;;;;;;;10525528;28;20224;-66
2021/04/07 22:01:10;;;;;;;3.70;1.67;;;;;;;;;;10528410;28;20235;-67
2021/04/07 22:06:16;;;;;;;7.40;3.63;;;;;;;;;;10513477;28;20216;-65
2021/04/07 22:11:18;;;;;;;4.63;2.03;;;;;;;;;;10518284;28;20192;-66
2021/04/07 22:16:20;;;;;;;4.03;2.13;;;;;;;;;;10508865;28;20219;-65
2021/04/07 22:21:24;;;;;;;7.37;3.07;;;;;;;;;;10516064;28;20217;-67
2021/04/07 22:26:26;;;;;;;7.93;2.40;;;;;;;;;;10507784;28;20216;-65
2021/04/07 22:31:28;;;;;;;8.60;3.10;;;;;;;;;;10515534;28;20268;-66
2021/04/07 22:36:31;;;;;;;7.40;3.17;;;;;;;;;;10512140;28;20215;-66
2021/04/07 22:41:33;;;;;;;8.83;3.43;;;;;;;;;;10518505;28;20211;-66
2021/04/07 22:46:36;;;;;;;4.90;2.50;;;;;;;;;;10508397;28;20217;-66
2021/04/07 22:51:39;;;;;;;7.57;3.07;;;;;;;;;;10512614;28;20184;-66
2021/04/07 22:56:42;;;;;;;6.17;2.80;;;;;;;;;;10513119;28;20216;-65
2021/04/07 23:01:43;;;;;;;8.17;3.30;;;;;;;;;;10508479;28;20595;-65
2021/04/07 23:06:46;;;;;;;5.60;2.53;;;;;;;;;;10511701;28;20686;-65
2021/04/07 23:11:48;;;;;;;8.33;3.47;;;;;;;;;;10521413;28;20672;-64
2021/04/07 23:16:50;;;;;;;7.87;3.27;;;;;;;;;;10509415;28;20722;-66
2021/04/07 23:21:52;;;;;;;5.43;2.43;;;;;;;;;;10515988;28;20279;-66
2021/04/07 23:26:54;;;;;;;8.00;3.07;;;;;;;;;;10504394;28;20311;-66
2021/04/07 23:31:56;;;;;;;7.03;3.17;;;;;;;;;;10510599;28;20191;-66
2021/04/07 23:36:59;;;;;;;7.90;2.97;;;;;;;;;;10507504;28;20220;-66
2021/04/07 23:42:01;;;;;;;3.87;1.80;;;;;;;;;;10500393;28;20214;-67
2021/04/07 23:47:03;;;;;;;6.17;3.00;;;;;;;;;;10509546;28;20212;-67
2021/04/07 23:52:07;;;;;;;6.87;2.53;;;;;;;;;;10511653;28;20189;-67
2021/04/07 23:57:09;;;;;;;5.97;3.00;;;;;;;;;;10508229;28;20221;-67
